Latest Weather Observations for Mortlake

IDV60801

Issued at 12:05 pm EST Sunday 31 August 2014 (issued every 30 minutes, with the page automatically refreshed every 10 minutes)

About weather observations | Map of weather stations | Latest weather observations for VIC | Other Formats
Station Details ID: 090176 Name: MORTLAKE RACECOURSE Lat: -38.07 Lon: 142.77 Height: 130.0 m
Data from the previous 72 hours. | See also: Recent months at Mortlake
Date/Time
EST
Temp
°C
App
Temp
°C
Dew
Point
Rel
Hum
%
Delta-T
°C
Wind Press
QNH
hPa
Press
MSL
hPa
Rain
since 9 am
mm
Dir
 
Spd
km/h
Gust
km/h
Spd
kts
Gust
kts
31/12:00pm 17.5 12.9 10.9 65 3.6 N 26 37 14 20 1014.4 1014.5 0.6
31/11:30am 16.6 12.3 10.9 69 3.1 N 24 32 13 17 1014.9 1015.1 0.6
31/11:00am 16.3 12.1 11.0 71 2.9 N 24 32 13 17 1015.2 1015.4 0.6
31/10:30am 15.4 10.5 10.0 70 2.8 N 26 39 14 21 1015.6 1015.8 0.6
31/10:00am 15.7 11.0 10.5 71 2.8 N 26 35 14 19 1016.0 1016.2 0.6
31/09:30am 14.7 11.0 10.1 74 2.4 N 20 26 11 14 1016.5 1016.7 0.0
31/09:00am 13.9 9.6 9.5 75 2.3 N 22 30 12 16 1016.6 1016.8 0.0
31/08:30am 13.0 9.1 9.3 78 1.9 N 20 30 11 16 1016.8 1017.0 0.0
31/08:00am 11.6 7.2 9.0 84 1.3 N 22 30 12 16 1016.6 1016.8 0.0
31/07:30am 10.3 6.2 8.6 89 0.8 N 20 26 11 14 1016.7 1016.9 0.0
31/07:00am 9.3 5.3 8.2 93 0.5 N 19 22 10 12 1016.7 1016.9 0.0
31/06:30am 8.3 4.2 7.7 96 0.3 N 19 20 10 11 1016.5 1016.7 0.0
31/06:00am 8.7 5.0 8.1 96 0.3 N 17 20 9 11 1016.7 1016.9 0.0
31/05:30am 8.2 4.8 7.8 97 0.2 N 15 19 8 10 1016.9 1017.1 0.0
31/05:00am 8.4 5.0 7.6 95 0.4 N 15 19 8 10 1016.9 1017.1 0.0
31/04:30am 8.8 5.4 7.7 93 0.5 N 15 20 8 11 1016.9 1017.1 0.0
31/04:00am 9.3 6.0 8.2 93 0.5 N 15 19 8 10 1017.0 1017.2 0.0
31/03:30am 9.1 5.8 8.0 93 0.5 N 15 17 8 9 1017.2 1017.4 0.0
31/03:00am 9.0 5.7 8.1 94 0.4 N 15 19 8 10 1017.5 1017.7 0.0
31/02:30am 9.5 6.3 8.4 93 0.5 N 15 19 8 10 1017.7 1017.9 0.0
31/02:00am 8.9 5.6 8.1 95 0.4 N 15 19 8 10 1018.0 1018.2 0.0
31/01:30am 9.2 6.3 8.3 94 0.4 N 13 17 7 9 1018.4 1018.6 0.0
31/01:00am 8.5 5.7 8.4 99 0.0 N 13 17 7 9 1018.6 1018.8 0.0
31/12:30am 8.8 6.0 8.4 97 0.2 N 13 15 7 8 1018.9 1019.1 0.0
31/12:00am 8.9 6.1 8.5 97 0.2 N 13 17 7 9 1019.0 1019.2 0.0
 
Date/Time
EST
Temp
°C
App
Temp
°C
Dew
Point
Rel
Hum
%
Delta-T
°C
Wind Press
QNH
hPa
Press
MSL
hPa
Rain
since 9 am
mm
Dir
 
Spd
km/h
Gust
km/h
Spd
kts
Gust
kts
30/11:30pm 9.5 6.4 9.0 97 0.2 N 15 17 8 9 1019.2 1019.4 0.0
30/11:00pm 9.4 6.4 9.1 98 0.1 N 15 17 8 9 1019.5 1019.7 0.0
30/10:30pm 9.2 6.9 8.9 98 0.1 N 11 13 6 7 1020.0 1020.2 0.0
30/10:00pm 10.3 8.3 10.0 98 0.2 N 11 15 6 8 1020.2 1020.4 0.0
30/09:30pm 10.0 7.6 9.9 99 0.1 NNE 13 15 7 8 1020.3 1020.5 0.0
30/09:00pm 10.5 8.5 10.3 99 0.1 NNE 11 13 6 7 1020.6 1020.8 0.0
30/08:30pm 10.7 9.4 9.8 94 0.5 N 7 11 4 6 1020.6 1020.8 0.0
30/08:00pm 11.1 10.0 10.8 98 0.2 N 7 9 4 5 1020.7 1020.9 0.0
30/07:30pm 11.4 10.3 10.8 96 0.3 N 7 7 4 4 1020.9 1021.1 0.0
30/07:00pm 12.2 11.4 10.9 92 0.7 NNW 6 7 3 4 1020.7 1020.9 0.0
30/06:30pm 12.9 12.4 10.8 87 1.1 NNW 4 6 2 3 1020.6 1020.8 0.0
30/06:00pm 15.2 15.1 12.2 82 1.6 NNW 4 6 2 3 1020.4 1020.6 0.0
30/05:30pm 17.3 17.0 12.8 75 2.5 NNW 6 7 3 4 1020.4 1020.6 0.0
30/05:00pm 18.8 18.4 13.0 69 3.3 NW 7 11 4 6 1020.5 1020.7 0.0
30/04:30pm 19.4 18.7 11.9 62 4.2 NNW 7 11 4 6 1020.5 1020.7 0.0
30/04:00pm 19.4 18.0 12.2 63 4.0 NNW 11 15 6 8 1020.6 1020.8 0.0
30/03:30pm 19.8 18.8 12.3 62 4.2 NW 9 13 5 7 1020.7 1020.9 0.0
30/03:00pm 19.3 18.5 13.0 67 3.6 N 9 13 5 7 1020.9 1021.1 0.0
30/02:30pm 19.3 18.3 13.5 69 3.3 N 11 15 6 8 1021.1 1021.4 0.0
30/02:00pm 18.5 16.9 12.7 69 3.3 N 13 19 7 10 1021.5 1021.8 0.0
30/01:30pm 18.2 16.4 12.2 68 3.3 NNW 13 19 7 10 1022.0 1022.2 0.0
30/01:00pm 18.1 16.2 11.9 67 3.4 NNW 13 19 7 10 1022.5 1022.7 0.0
30/12:30pm 17.4 15.7 12.3 72 2.8 N 13 19 7 10 1022.9 1023.1 0.0
30/12:00pm 16.1 14.4 12.5 79 2.0 NNE 13 17 7 9 1023.2 1023.4 0.0
30/11:30am 14.5 12.6 11.7 83 1.5 N 13 19 7 10 1023.5 1023.7 0.0
30/11:00am 12.9 10.4 11.0 88 1.0 N 15 19 8 10 1023.9 1024.1 0.0
30/10:30am 11.3 8.6 10.5 95 0.4 N 15 19 8 10 1024.3 1024.5 0.0
30/10:00am 10.1 7.9 9.5 96 0.3 NNE 11 15 6 8 1024.6 1024.8 0.0
30/09:30am 9.6 7.0 9.5 99 0.1 NE 13 17 7 9 1025.0 1025.2 0.0
30/09:00am 8.4 5.5 8.3 99 0.0 NE 13 17 7 9 1025.3 1025.5 0.0
30/08:30am 8.4 5.6 8.4 100 0.0 NNE 13 17 7 9 1025.4 1025.6 0.0
30/08:00am 8.3 5.8 8.3 100 0.0 NE 11 15 6 8 1025.5 1025.7 0.0
30/07:30am 8.8 6.8 8.8 100 0.0 NNE 9 13 5 7 1025.4 1025.6 0.0
30/07:00am 8.7 5.9 8.7 100 0.0 NE 13 19 7 10 1025.3 1025.5 0.0
30/06:30am 9.0 6.7 9.0 100 0.0 ENE 11 17 6 9 1025.2 1025.4 0.0
30/06:00am 8.9 5.8 8.9 100 0.0 NE 15 22 8 12 1025.0 1025.2 0.0
30/05:30am 9.2 7.0 9.2 100 0.0 NE 11 17 6 9 1025.0 1025.2 0.0
30/05:00am 9.0 5.9 9.0 100 0.0 ENE 15 26 8 14 1025.0 1025.2 0.0
30/04:30am 9.0 6.3 9.0 100 0.0 ENE 13 20 7 11 1024.9 1025.1 0.0
30/04:00am 8.4 6.3 8.4 100 0.0 NE 9 13 5 7 1025.1 1025.3 0.0
30/03:30am 8.0 5.8 8.0 100 0.0 ENE 9 13 5 7 1025.3 1025.5 0.0
30/03:00am 6.9 5.0 6.8 99 0.0 E 6 9 3 5 1025.5 1025.7 0.0
30/02:30am 8.2 6.4 8.1 99 0.0 ENE 7 9 4 5 1025.9 1026.1 0.0
30/02:00am 8.8 7.2 8.7 99 0.0 ENE 7 13 4 7 1026.2 1026.4 0.0
30/01:30am 7.9 6.3 7.8 99 0.0 ENE 6 9 3 5 1026.5 1026.7 0.0
30/01:00am 8.4 6.3 8.3 99 0.0 ENE 9 17 5 9 1026.7 1026.9 0.0
30/12:30am 8.3 6.2 8.2 99 0.0 ENE 9 13 5 7 1026.9 1027.1 0.0
30/12:00am 8.3 6.6 8.2 99 0.0 ENE 7 13 4 7 1027.1 1027.3 0.0
 
Date/Time
EST
Temp
°C
App
Temp
°C
Dew
Point
Rel
Hum
%
Delta-T
°C
Wind Press
QNH
hPa
Press
MSL
hPa
Rain
since 9 am
mm
Dir
 
Spd
km/h
Gust
km/h
Spd
kts
Gust
kts
29/11:30pm 8.8 6.4 8.7 99 0.0 ENE 11 19 6 10 1027.3 1027.5 0.0
29/11:00pm 8.5 6.4 8.4 99 0.0 ENE 9 17 5 9 1027.4 1027.6 0.0
29/10:30pm 8.6 6.6 8.5 99 0.0 ENE 9 15 5 8 1027.7 1028.0 0.0
29/10:00pm 8.9 6.9 8.8 99 0.0 ENE 9 13 5 7 1027.9 1028.2 0.0
29/09:30pm 9.1 7.6 9.0 99 0.0 ENE 7 11 4 6 1027.8 1028.1 0.0
29/09:00pm 9.7 8.3 9.6 99 0.0 ENE 7 11 4 6 1027.8 1028.1 0.0
29/08:30pm 10.4 8.8 10.1 98 0.2 ENE 9 15 5 8 1027.7 1028.0 0.0
29/08:00pm 10.8 9.2 10.2 96 0.3 ENE 9 11 5 6 1027.7 1028.0 0.0
29/07:30pm 10.9 9.9 10.4 97 0.3 E 6 7 3 4 1027.6 1027.9 0.0
29/07:00pm 11.1 10.6 10.6 97 0.3 E 4 4 2 2 1027.5 1027.8 0.0
29/06:30pm 12.1 11.6 10.7 91 0.7 E 4 4 2 2 1027.3 1027.5 0.0
29/06:00pm 13.0 12.1 10.5 85 1.3 E 6 6 3 3 1027.2 1027.4 0.0
29/05:30pm 14.4 13.6 11.2 81 1.7 ESE 6 9 3 5 1027.0 1027.2 0.0
29/05:00pm 15.2 14.3 11.4 78 2.0 ESE 7 11 4 6 1027.1 1027.3 0.0
29/04:30pm 15.6 14.3 11.2 75 2.4 E 9 13 5 7 1027.0 1027.2 0.0
29/04:00pm 15.9 14.6 11.3 74 2.5 E 9 17 5 9 1027.1 1027.3 0.0
29/03:30pm 16.2 14.9 11.2 72 2.7 E 9 13 5 7 1027.1 1027.3 0.0
29/03:00pm 16.3 14.9 10.8 70 2.9 E 9 13 5 7 1027.2 1027.4 0.0
29/02:30pm 16.4 15.6 11.6 73 2.6 ENE 7 13 4 7 1027.3 1027.5 0.0
29/02:00pm 16.7 15.8 12.7 77 2.2 ENE 9 13 5 7 1027.4 1027.6 0.0
29/01:30pm 16.3 15.2 11.9 75 2.4 E 9 15 5 8 1027.8 1028.1 0.0
29/01:00pm 16.3 14.7 11.7 74 2.5 ENE 11 19 6 10 1028.1 1028.4 0.0
29/12:30pm 15.8 15.0 11.6 76 2.3 E 7 13 4 7 1028.7 1029.0 0.0
29/12:00pm 15.1 13.8 11.3 78 2.0 ENE 9 15 5 8 1028.9 1029.2 0.0
29/11:30am 14.4 12.8 11.6 83 1.5 E 11 19 6 10 1029.2 1029.5 0.0
29/11:00am 14.1 12.9 11.6 85 1.3 ENE 9 13 5 7 1029.4 1029.7 0.0
29/10:30am 13.9 13.2 11.9 88 1.1 SSE 7 11 4 6 1029.5 1029.8 0.0
29/10:00am 13.1 12.4 11.3 89 1.0 SSE 6 9 3 5 1029.7 1030.0 0.0
29/09:30am 11.5 11.9 11.3 99 0.1 CALM 0 4 0 2 1029.9 1030.1 0.0
29/09:00am 9.0 8.8 9.0 100 0.0 CALM 0 0 0 0 1029.7 1030.0 0.0
29/08:30am 6.7 5.9 6.7 100 0.0 CALM 0 0 0 0 1029.7 1030.0 0.0
29/08:00am 5.1 4.0 5.1 100 0.0 CALM 0 0 0 0 1029.4 1029.7 0.0
29/07:30am 2.5 0.9 2.4 99 0.0 CALM 0 4 0 2 1029.2 1029.5 0.0
29/07:00am 1.5 -0.6 1.4 99 0.0 SSE 2 4 1 2 1028.9 1029.2 0.0
29/06:30am 1.6 -0.2 1.5 99 0.0 CALM 0 0 0 0 1028.6 1028.9 0.0
29/06:00am 1.9 0.2 1.8 99 0.0 CALM 0 0 0 0 1028.4 1028.7 0.0
29/05:30am 2.4 0.8 2.3 99 0.0 CALM 0 0 0 0 1028.3 1028.6 0.0
29/05:00am 2.5 0.9 2.4 99 0.0 CALM 0 0 0 0 1028.1 1028.4 0.0
29/04:30am 2.8 1.2 2.7 99 0.0 CALM 0 0 0 0 1028.2 1028.5 0.0
29/04:00am 4.7 3.1 4.7 100 0.0 SSE 2 4 1 2 1028.0 1028.3 0.0
29/03:30am 3.7 1.0 3.6 99 0.0 SSE 7 7 4 4 1027.8 1028.1 0.0
29/03:00am 3.0 0.3 2.9 99 0.0 SSE 6 6 3 3 1028.0 1028.3 0.0
29/02:30am 3.1 0.8 3.0 99 0.0 SSE 4 7 2 4 1028.4 1028.7 0.0
29/02:00am 3.1 0.8 3.0 99 0.0 S 4 6 2 3 1028.7 1029.0 0.0
29/01:30am 3.5 1.3 3.4 99 0.0 S 4 4 2 2 1028.9 1029.2 0.0
29/01:00am 3.9 1.8 3.8 99 0.0 S 4 4 2 2 1029.0 1029.3 0.0
29/12:30am 4.3 2.3 4.2 99 0.0 S 4 4 2 2 1029.0 1029.3 0.0
29/12:00am 4.9 3.0 4.8 99 0.0 S 4 4 2 2 1028.9 1029.2 0.0
 
Date/Time
EST
Temp
°C
App
Temp
°C
Dew
Point
Rel
Hum
%
Delta-T
°C
Wind Press
QNH
hPa
Press
MSL
hPa
Rain
since 9 am
mm
Dir
 
Spd
km/h
Gust
km/h
Spd
kts
Gust
kts
28/11:30pm 5.2 3.3 5.1 99 0.0 S 4 4 2 2 1028.8 1029.1 0.0
28/11:00pm 4.9 2.6 4.8 99 0.0 S 6 6 3 3 1028.9 1029.2 0.0
28/10:30pm 5.1 3.2 5.0 99 0.0 S 4 6 2 3 1029.0 1029.3 0.0
28/10:00pm 5.5 4.5 5.4 99 0.0 CALM 0 0 0 0 1029.1 1029.4 0.0
28/09:30pm 6.5 5.7 6.4 99 0.0 CALM 0 0 0 0 1029.0 1029.3 0.0
28/09:00pm 7.5 6.9 7.4 99 0.0 CALM 0 0 0 0 1028.9 1029.2 0.0
28/08:30pm 8.0 7.4 7.6 97 0.2 CALM 0 2 0 1 1028.8 1029.1 0.0
28/08:00pm 8.9 7.4 8.5 97 0.2 S 6 6 3 3 1028.6 1028.9 0.0
28/07:30pm 9.9 8.5 9.0 94 0.4 S 6 7 3 4 1028.3 1028.6 0.0
28/07:00pm 10.3 9.0 9.2 93 0.5 S 6 7 3 4 1028.1 1028.4 0.0
28/06:30pm 10.9 9.6 9.8 93 0.6 SSE 7 9 4 5 1028.0 1028.3 0.0
28/06:00pm 13.0 11.8 11.7 92 0.7 S 9 11 5 6 1027.7 1028.0 0.0
28/05:30pm 14.6 13.8 13.0 90 0.9 S 9 13 5 7 1027.5 1027.8 0.0
28/05:00pm 16.3 15.4 12.7 79 2.0 S 9 11 5 6 1027.3 1027.5 0.0
28/04:30pm 17.3 16.4 12.6 74 2.6 SSW 9 13 5 7 1027.2 1027.4 0.0
28/04:00pm 17.8 16.4 13.3 75 2.5 SSW 13 17 7 9 1027.1 1027.3 0.0
28/03:30pm 17.9 16.5 13.4 75 2.6 SW 13 17 7 9 1027.1 1027.3 0.0
28/03:00pm 18.3 17.5 13.0 71 3.0 SSW 9 17 5 9 1026.9 1027.1 0.0
28/02:30pm 18.7 17.7 12.2 66 3.6 WNW 9 15 5 8 1027.0 1027.2 0.0
28/02:00pm 18.7 18.0 13.1 70 3.2 WNW 9 17 5 9 1027.0 1027.2 0.0
28/01:30pm 18.2 17.0 11.7 66 3.6 W 9 19 5 10 1027.2 1027.4 0.0
28/01:00pm 18.0 16.5 11.8 67 3.4 W 11 20 6 11 1027.6 1027.9 0.0
28/12:30pm 17.8 17.6 13.5 76 2.4 W 7 15 4 8 1028.0 1028.3 0.0

Other Formats:

Comma delimited format used in spreadsheet applications
http://www.bom.gov.au/fwo/IDV60801/IDV60801.94840.axf

JavaScript Object Notation format (JSON) in row-major order
http://www.bom.gov.au/fwo/IDV60801/IDV60801.94840.json